createdAt,value
2023-04-28T13:00:52.348Z,1005.04
2023-04-28T13:01:53.549Z,1004.96
2023-04-28T13:02:52.373Z,1005.32
2023-04-28T13:03:52.947Z,1005.34
2023-04-28T13:04:56.858Z,1004.99
2023-04-28T13:05:52.320Z,1005.28
2023-04-28T13:06:52.137Z,1004.96
2023-04-28T13:12:44.450Z,1004.77
2023-04-28T13:13:43.457Z,1004.81
2023-04-28T13:14:44.685Z,1004.77
2023-04-28T13:15:43.027Z,1004.75
2023-04-28T13:16:42.982Z,1004.72
2023-04-28T13:17:43.527Z,1004.69
2023-04-28T13:18:43.957Z,1004.67
2023-04-28T13:19:42.945Z,1004.77
2023-04-28T13:20:42.831Z,1004.65
2023-04-28T13:21:43.504Z,1004.67
2023-04-28T13:22:42.768Z,1004.69
2023-04-28T13:23:42.791Z,1004.68
2023-04-28T13:24:42.584Z,1004.76
2023-04-28T13:25:42.513Z,1004.56
2023-04-28T13:26:42.588Z,1004.92
2023-04-28T13:27:43.439Z,1004.56
2023-04-28T13:28:42.388Z,1004.59
2023-04-28T13:29:42.374Z,1004.55
2023-04-28T13:30:42.331Z,1004.50
2023-04-28T13:31:42.348Z,1004.84
2023-04-28T13:32:42.305Z,1004.49
2023-04-28T13:33:42.248Z,1004.79
2023-04-28T13:34:42.357Z,1004.84
2023-04-28T13:35:42.290Z,1004.89
2023-04-28T13:36:42.133Z,1004.75
2023-04-28T13:37:42.111Z,1004.59
2023-04-28T13:38:42.076Z,1004.49
2023-04-28T13:39:42.039Z,1004.71
2023-04-28T13:40:42.185Z,1004.80
2023-04-28T13:41:41.973Z,1004.43
2023-04-28T13:42:42.124Z,1004.67
2023-04-28T13:43:41.916Z,1004.36
2023-04-28T13:44:41.849Z,1004.63
2023-04-28T13:45:41.848Z,1004.34
2023-04-28T13:46:41.856Z,1004.31
2023-04-28T13:47:41.774Z,1004.62
2023-04-28T13:48:41.760Z,1004.57
2023-04-28T13:49:41.692Z,1004.17
2023-04-28T13:50:41.650Z,1004.19
2023-04-28T13:51:41.625Z,1004.23
2023-04-28T13:52:41.582Z,1004.23
2023-04-28T13:53:41.541Z,1004.24
2023-04-28T13:54:41.511Z,1004.28
2023-04-28T13:55:41.493Z,1004.25
2023-04-28T13:56:41.451Z,1004.24
2023-04-28T13:57:41.412Z,1004.24
2023-04-28T13:58:41.375Z,1004.27
2023-04-28T13:59:41.333Z,1004.61
2023-04-28T14:00:41.330Z,1004.25
2023-04-28T14:01:41.324Z,1004.23
2023-04-28T14:02:43.184Z,1004.18
2023-04-28T14:03:41.333Z,1004.19
2023-04-28T14:04:41.449Z,1004.16
2023-04-28T14:05:48.847Z,1004.52
2023-04-28T14:06:41.090Z,1004.59
2023-04-28T14:07:41.095Z,1004.36
2023-04-28T14:08:41.129Z,1004.34
2023-04-28T14:09:41.003Z,1004.36
2023-04-28T14:10:40.982Z,1004.35
2023-04-28T14:11:40.989Z,1004.34
2023-04-28T14:12:40.909Z,1004.63
2023-04-28T14:13:40.926Z,1004.28
2023-04-28T14:14:47.211Z,1004.27
2023-04-28T14:15:51.266Z,1004.66
2023-04-28T14:16:40.785Z,1004.22
2023-04-28T14:17:40.740Z,1004.49
2023-04-28T14:18:40.693Z,1004.49
2023-04-28T14:19:42.677Z,1004.18
2023-04-28T14:20:40.642Z,1004.51
2023-04-28T14:21:43.585Z,1004.42
2023-04-28T14:22:40.593Z,1004.09
2023-04-28T14:23:40.523Z,1004.15
2023-04-28T14:24:40.554Z,1004.34
2023-04-28T14:25:42.162Z,1004.14
2023-04-28T14:26:40.454Z,1004.10
2023-04-28T14:27:40.431Z,1004.16
2023-04-28T14:28:40.381Z,1004.13
2023-04-28T14:29:40.402Z,1004.14
2023-04-28T14:30:40.291Z,1004.56
2023-04-28T14:31:42.224Z,1004.21
2023-04-28T14:32:40.287Z,1004.22
2023-04-28T14:33:44.087Z,1004.20
2023-04-28T14:34:40.152Z,1004.21
2023-04-28T14:35:40.115Z,1004.23
2023-04-28T14:36:40.085Z,1004.16
2023-04-28T14:37:40.112Z,1004.24
2023-04-28T14:38:40.418Z,1004.23
2023-04-28T14:39:39.997Z,1004.25
2023-04-28T14:40:41.633Z,1004.15
2023-04-28T14:41:39.909Z,1004.15
2023-04-28T14:42:39.891Z,1004.18
2023-04-28T14:43:39.868Z,1004.20
2023-04-28T14:44:39.802Z,1004.17
2023-04-28T14:45:39.814Z,1004.20
2023-04-28T14:46:39.879Z,1004.22
2023-04-28T14:47:39.722Z,1004.23
2023-04-28T14:48:39.664Z,1004.25
2023-04-28T14:49:39.648Z,1004.27
2023-04-28T14:50:39.600Z,1004.29
2023-04-28T14:51:39.613Z,1004.26
2023-04-28T14:52:39.538Z,1004.30
2023-04-28T14:53:39.519Z,1004.28
2023-04-28T14:54:39.458Z,1004.34
2023-04-28T14:55:39.446Z,1004.31
2023-04-28T14:56:39.414Z,1004.31
2023-04-28T14:57:39.400Z,1004.29
2023-04-28T14:58:39.340Z,1004.29
2023-04-28T14:59:39.309Z,1004.30
2023-04-28T15:00:39.268Z,1004.35
2023-04-28T15:01:39.264Z,1004.33
2023-04-28T15:02:39.381Z,1004.31
2023-04-28T15:03:39.305Z,1004.32
2023-04-28T15:04:39.211Z,1004.30
2023-04-28T15:05:39.102Z,1004.33
2023-04-28T15:06:39.053Z,1004.28
2023-04-28T15:07:39.034Z,1004.31
2023-04-28T15:08:39.030Z,1004.35
2023-04-28T15:09:40.610Z,1004.31
2023-04-28T15:10:38.907Z,1004.32
2023-04-28T15:11:38.900Z,1004.39
2023-04-28T15:12:38.858Z,1004.39
2023-04-28T15:13:40.007Z,1004.40
2023-04-28T15:14:38.803Z,1004.44
2023-04-28T15:15:38.737Z,1004.48
2023-04-28T15:16:38.907Z,1004.50
2023-04-28T15:17:38.721Z,1004.53
2023-04-28T15:18:38.638Z,1004.43
2023-04-28T15:19:38.619Z,1004.54
2023-04-28T15:20:38.597Z,1004.57
2023-04-28T15:21:38.542Z,1004.59
2023-04-28T15:22:38.533Z,1004.59
2023-04-28T15:23:38.506Z,1004.69
2023-04-28T15:24:38.424Z,1004.60
2023-04-28T15:25:38.393Z,1004.62
2023-04-28T15:26:38.379Z,1004.70
2023-04-28T15:27:38.338Z,1004.73
2023-04-28T15:28:38.305Z,1004.71
2023-04-28T15:29:38.276Z,1004.80
2023-04-28T15:30:38.231Z,1004.80
2023-04-28T15:31:38.219Z,1004.97
2023-04-28T15:32:38.262Z,1004.86
2023-04-28T15:33:38.118Z,1005.03
2023-04-28T15:34:38.078Z,1005.00
2023-04-28T15:35:38.057Z,1005.18
2023-04-28T15:36:38.007Z,1005.13
2023-04-28T15:37:38.011Z,1005.09
2023-04-28T15:38:39.634Z,1005.23
2023-04-28T15:39:37.965Z,1005.20
2023-04-28T15:40:37.871Z,1005.22
2023-04-28T15:41:37.882Z,1005.23
2023-04-28T15:42:37.808Z,1005.18
2023-04-28T15:43:37.821Z,1005.17
2023-04-28T15:44:40.613Z,1005.29
2023-04-28T15:45:37.759Z,1005.29
2023-04-28T15:46:37.733Z,1005.29
2023-04-28T15:47:37.633Z,1005.31
2023-04-28T15:48:37.607Z,1005.32
2023-04-28T15:49:37.627Z,1005.37
2023-04-28T15:50:40.886Z,1005.33
2023-04-28T15:51:39.232Z,1005.36
2023-04-28T15:52:37.439Z,1005.31
2023-04-28T15:53:37.416Z,1005.35
2023-04-28T15:54:37.377Z,1005.38
2023-04-28T15:55:37.356Z,1005.32
2023-04-28T15:56:37.322Z,1005.42
2023-04-28T15:57:37.284Z,1005.39
2023-04-28T15:58:37.223Z,1005.38
2023-04-28T15:59:37.206Z,1005.41
2023-04-28T16:00:37.165Z,1005.39
2023-04-28T16:01:37.182Z,1005.40
2023-04-28T16:02:37.192Z,1005.42
2023-04-28T16:03:37.432Z,1005.37
2023-04-28T16:04:37.186Z,1005.45
2023-04-28T16:05:36.995Z,1005.40
2023-04-28T16:06:36.977Z,1005.45
2023-04-28T16:07:36.921Z,1005.38
2023-04-28T16:08:36.928Z,1005.38
2023-04-28T16:09:36.839Z,1005.34
2023-04-28T16:10:36.842Z,1005.43
2023-04-28T16:11:38.661Z,1005.46
2023-04-28T16:12:36.744Z,1005.46
2023-04-28T16:13:36.708Z,1005.44
2023-04-28T16:14:36.697Z,1005.41
2023-04-28T16:15:36.648Z,1005.45
2023-04-28T16:16:36.618Z,1005.44
2023-04-28T16:17:38.295Z,1005.45
2023-04-28T16:18:38.301Z,1005.44
2023-04-28T16:19:36.486Z,1005.44
2023-04-28T16:20:37.540Z,1005.52
2023-04-28T16:21:36.419Z,1005.47
2023-04-28T16:22:36.365Z,1005.56
2023-04-28T16:23:36.382Z,1005.50
2023-04-28T16:24:38.245Z,1005.84
2023-04-28T16:25:36.273Z,1005.58
2023-04-28T16:26:42.283Z,1005.60
2023-04-28T16:27:39.638Z,1005.56
2023-04-28T16:28:38.152Z,1005.53
2023-04-28T16:31:57.716Z,1005.56
2023-04-28T16:33:25.211Z,1005.52
2023-04-28T16:33:32.711Z,1005.59
2023-04-28T16:38:06.856Z,1005.60
2023-04-28T16:39:04.567Z,1005.52
2023-04-28T16:40:04.373Z,1005.57
2023-04-28T16:41:05.240Z,1005.55
2023-04-28T16:42:05.823Z,1005.52
2023-04-28T16:43:04.281Z,1005.57
2023-04-28T16:44:04.736Z,1005.56
2023-04-28T16:45:04.134Z,1005.65
2023-04-28T16:46:04.125Z,1005.66
2023-04-28T16:47:05.828Z,1005.63
2023-04-28T16:48:04.116Z,1005.65
2023-04-28T16:49:05.854Z,1005.68
2023-04-28T16:50:03.960Z,1005.75
2023-04-28T16:51:03.958Z,1005.64
2023-04-28T16:52:08.778Z,1005.71
2023-04-28T16:53:03.922Z,1005.60
2023-04-28T16:54:03.985Z,1005.66
2023-04-28T16:58:07.503Z,1005.69
2023-04-28T16:59:06.263Z,1005.75
2023-04-28T17:00:07.016Z,1005.72
2023-04-28T17:01:06.259Z,1005.74
2023-04-28T17:02:06.944Z,1005.75
2023-04-28T17:03:06.271Z,1005.75
2023-04-28T17:04:06.734Z,1005.78
2023-04-28T17:05:06.021Z,1005.81
2023-04-28T17:06:06.073Z,1005.74
2023-04-28T17:07:06.472Z,1005.77
2023-04-28T17:08:07.517Z,1005.81
2023-04-28T17:09:05.888Z,1005.83
2023-04-28T17:10:05.865Z,1005.82
2023-04-28T17:11:05.844Z,1005.80
2023-04-28T17:12:06.526Z,1005.77
2023-04-28T17:13:07.291Z,1005.76
2023-04-28T17:14:06.693Z,1005.75
2023-04-28T17:15:06.521Z,1005.82
2023-04-28T17:16:05.676Z,1005.81
2023-04-28T17:17:05.999Z,1005.78
2023-04-28T17:18:05.555Z,1005.81
2023-04-28T17:19:05.610Z,1006.22
2023-04-28T17:20:06.060Z,1005.87
2023-04-28T17:21:05.419Z,1006.22
2023-04-28T17:22:05.937Z,1006.23
2023-04-28T17:23:05.375Z,1005.87
2023-04-28T17:24:05.383Z,1005.85
2023-04-28T17:25:05.281Z,1005.84
2023-04-28T17:26:05.286Z,1005.84
2023-04-28T17:27:05.260Z,1005.86
2023-04-28T17:28:05.271Z,1005.81
2023-04-28T17:29:05.245Z,1005.85
2023-04-28T17:30:06.051Z,1005.83
2023-04-28T17:31:06.122Z,1005.85
2023-04-28T17:32:06.031Z,1005.84
2023-04-28T17:33:05.061Z,1005.92
2023-04-28T17:34:07.478Z,1005.86
2023-04-28T17:35:04.906Z,1006.16
2023-04-28T17:36:05.009Z,1005.86
2023-04-28T17:37:05.522Z,1005.83
2023-04-28T17:38:04.885Z,1005.88
2023-04-28T17:39:04.788Z,1005.88
2023-04-28T17:40:05.780Z,1005.89
2023-04-28T17:41:12.403Z,1005.94
2023-04-28T17:42:04.955Z,1005.90
2023-04-28T17:43:05.013Z,1005.89
2023-04-28T17:44:04.573Z,1005.93
2023-04-28T17:45:05.537Z,1005.92
2023-04-28T17:46:04.605Z,1005.98
2023-04-28T17:47:04.641Z,1005.92
2023-04-28T17:48:04.542Z,1005.99
2023-04-28T17:49:04.426Z,1006.12
2023-04-28T17:50:04.402Z,1005.98
2023-04-28T17:51:05.063Z,1006.01
2023-04-28T17:52:04.391Z,1006.03
2023-04-28T17:53:06.274Z,1006.06
2023-04-28T17:54:08.391Z,1006.06
2023-04-28T17:55:07.037Z,1006.05
2023-04-28T17:56:04.141Z,1006.07
2023-04-28T17:57:04.113Z,1006.06
2023-04-28T17:58:04.097Z,1006.05
2023-04-28T17:59:05.058Z,1006.06
2023-04-28T18:00:08.527Z,1006.07
2023-04-28T18:01:03.957Z,1006.10
2023-04-28T18:02:04.624Z,1006.13
2023-04-28T18:03:05.707Z,1006.12
2023-04-28T18:04:03.847Z,1006.10
2023-04-28T18:05:09.250Z,1006.11
2023-04-28T18:06:06.586Z,1006.35
2023-04-28T18:07:03.836Z,1006.15
2023-04-28T18:08:03.872Z,1006.11
2023-04-28T18:09:03.743Z,1006.12
